Air Resources Laboratory banner image
Air Resources Laboratory web site National Oceanic and Atmospheric Administration (NOAA)

ar metar


KARG 151156Z AUTO 21004KT 7SM CLR M04/M05 A3019 RMK AO2 SLP227 T10441050 10006
 21044 53011 FZRANO=
KASG 151148Z 26006KT 10SM BKN040 01/M03 A3018=
KBPK 151153Z AUTO 00000KT 10SM OVC050 M01/M03 A3014 RMK AO2 SLP211 T10061033
 10000 21022 51001=
KBVX 151156Z AUTO 31003KT 10SM CLR M03/M05 A3020 RMK AO2 SLP230 T10331050 10011
 21039 53011 FZRANO=
KCDH 151155Z AUTO 00000KT 10SM CLR M02/M04 A3024 RMK AO2=
KDEQ 151153Z AUTO 00000KT 10SM CLR M04/M04 A3022 RMK AO2 SLP234 I1000 I6000
 T10441044 11011 21050 53006=
KELD 151153Z AUTO 00000KT 10SM CLR M01/M02 A3024 RMK AO2 SLP240 T10061017 10050
 21017 53013=
KFLP 151156Z AUTO 00000KT 10SM OVC050 M02/M04 A3017 RMK AO2 SLP220 T10171039
 11006 21022 51003 FZRANO=
KFSM 151153Z 26005KT 10SM CLR M02/M04 A3021 RMK AO2 SLP231 T10171039 10017
 21022 53003=
KFYV 151153Z 00000KT 10SM OVC043 M02/M03 A3017 RMK AO2 SLP224 T10221033 11011
 21056 53003=
KHKA 151153Z AUTO 27003KT 10SM OVC042 M01/M02 A3018 RMK AO2 SLP223 T10111022
 11006 21033 53013=
KHOT 151153Z AUTO 00000KT 10SM CLR M02/M03 A3022 RMK AO2 SLP234 T10171028 10017
 21017 51013=
KHRO 151153Z AUTO 27005KT 10SM BKN070 01/M04 A3013 RMK AO2 SLP211 T00111039
 10017 21011 50000=
KJBR 151153Z AUTO 29005KT 10SM OVC049 M01/M03 A3018 RMK AO2 SLP221 T10111033
 10000 21028 53009=
KLIT 151153Z 24003KT 10SM FEW250 M02/M04 A3022 RMK AO2 SLP238 T10221044 10028
 21028 51014=
KLLQ 151153Z AUTO 29003KT 10SM CLR 00/M03 A3022 RMK AO2 SLP233 T00001033 10044
 21011 53010=
KLRF 151156Z AUTO 00000KT 10SM CLR M05/M07 A3020 RMK AO2 SLP232 T10461067 11022
 21051 52012=
KMWT 151153Z AUTO 00000KT 10SM CLR M03/M05 A3018 RMK AO2 SLP232 60000 T10331050
 10000 21039 53011=
KPBF 151153Z AUTO 29003KT 10SM CLR M02/M04 A3022 RMK AO2 SLP235 T10221039 10022
 21022 53009=
KROG 151158Z 25005KT 10SM FEW070 M01/M03 A3016 RMK AO2 SLP223 T10111033 10006
 21017 53003=
KRUE 151153Z AUTO 00000KT 10SM SCT050 M04/M05 A3020 RMK AO2 SLP224 T10441050
 11028 21050 51007=
KSGT 151156Z AUTO 28003KT 10SM CLR M01/M03 A3021 RMK AO2 SLP233 T10111033 10006
 21022 51011 FZRANO=
KSLG 151156Z AUTO 23003KT 10SM OVC041 00/M02 A3018 RMK AO2 SLP228 6//// 7////
 T00001022 10006 21039 FZRANO=
KSRC 151156Z AUTO 00000KT 10SM CLR M06/M06 A3021 RMK AO2 SLP241 6//// 7////
 T10561056 11017 21061 53012 FZRANO=
KTXK 151153Z 00000KT 10SM CLR 01/M02 A3024 RMK AO2 SLP241 T00111022 10039 21006
 53010=
KVBT 151156Z AUTO 25003KT 10SM BKN044 M01/M03 A3018 RMK AO2 SLP232 T10111033
 11006 21028 53003 FZRANO=
KXNA 151153Z 25005KT 10SM OVC046 00/M03 A3016 RMK AO2 SLP221 T00001028 10006
 21044 53004=